sensor_id;sensor_type;location;lat;lon;timestamp;P1;durP1;ratioP1;P2;durP2;ratioP2
44885;SDS011;36669;51.428;21.162;2023-02-19T00:02:15;8.07;;;3.65;;
44885;SDS011;36669;51.428;21.162;2023-02-19T00:04:42;4.90;;;2.75;;
44885;SDS011;36669;51.428;21.162;2023-02-19T00:07:10;5.15;;;2.78;;
44885;SDS011;36669;51.428;21.162;2023-02-19T00:09:38;5.90;;;2.95;;
44885;SDS011;36669;51.428;21.162;2023-02-19T00:12:06;5.55;;;3.42;;
44885;SDS011;36669;51.428;21.162;2023-02-19T00:14:36;2.83;;;1.73;;
44885;SDS011;36669;51.428;21.162;2023-02-19T00:17:02;2.50;;;1.33;;
44885;SDS011;36669;51.428;21.162;2023-02-19T00:19:31;2.83;;;1.95;;
44885;SDS011;36669;51.428;21.162;2023-02-19T00:21:57;4.25;;;2.25;;
44885;SDS011;36669;51.428;21.162;2023-02-19T00:24:24;3.97;;;2.15;;
44885;SDS011;36669;51.428;21.162;2023-02-19T00:26:52;1.70;;;1.30;;
44885;SDS011;36669;51.428;21.162;2023-02-19T00:29:18;5.07;;;2.35;;
44885;SDS011;36669;51.428;21.162;2023-02-19T00:31:47;3.85;;;2.38;;
44885;SDS011;36669;51.428;21.162;2023-02-19T00:34:14;7.93;;;3.17;;
44885;SDS011;36669;51.428;21.162;2023-02-19T00:36:44;8.40;;;3.80;;
44885;SDS011;36669;51.428;21.162;2023-02-19T00:39:13;8.27;;;4.45;;
44885;SDS011;36669;51.428;21.162;2023-02-19T00:41:43;7.97;;;4.03;;
44885;SDS011;36669;51.428;21.162;2023-02-19T00:44:12;10.77;;;4.35;;
44885;SDS011;36669;51.428;21.162;2023-02-19T00:46:42;5.97;;;3.53;;
44885;SDS011;36669;51.428;21.162;2023-02-19T00:49:17;5.15;;;3.10;;
44885;SDS011;36669;51.428;21.162;2023-02-19T00:51:47;7.97;;;3.47;;
44885;SDS011;36669;51.428;21.162;2023-02-19T00:54:15;10.48;;;3.67;;
44885;SDS011;36669;51.428;21.162;2023-02-19T00:56:42;5.53;;;2.47;;
44885;SDS011;36669;51.428;21.162;2023-02-19T00:59:10;5.65;;;3.17;;
44885;SDS011;36669;51.428;21.162;2023-02-19T01:01:35;6.90;;;3.78;;
44885;SDS011;36669;51.428;21.162;2023-02-19T01:04:03;8.65;;;2.88;;
44885;SDS011;36669;51.428;21.162;2023-02-19T01:06:31;7.80;;;3.35;;
44885;SDS011;36669;51.428;21.162;2023-02-19T01:08:58;5.43;;;3.30;;
44885;SDS011;36669;51.428;21.162;2023-02-19T01:11:25;11.73;;;3.58;;
44885;SDS011;36669;51.428;21.162;2023-02-19T01:13:55;3.97;;;2.95;;
44885;SDS011;36669;51.428;21.162;2023-02-19T01:16:24;10.25;;;3.90;;
44885;SDS011;36669;51.428;21.162;2023-02-19T01:18:53;12.18;;;2.88;;
44885;SDS011;36669;51.428;21.162;2023-02-19T01:21:21;5.72;;;2.55;;
44885;SDS011;36669;51.428;21.162;2023-02-19T01:23:49;4.80;;;2.58;;
44885;SDS011;36669;51.428;21.162;2023-02-19T01:26:18;12.38;;;4.03;;
44885;SDS011;36669;51.428;21.162;2023-02-19T01:28:51;6.22;;;4.10;;
44885;SDS011;36669;51.428;21.162;2023-02-19T01:31:19;9.75;;;4.05;;
44885;SDS011;36669;51.428;21.162;2023-02-19T01:33:47;7.13;;;2.85;;
44885;SDS011;36669;51.428;21.162;2023-02-19T01:36:17;7.45;;;4.35;;
44885;SDS011;36669;51.428;21.162;2023-02-19T01:38:44;3.67;;;2.22;;
44885;SDS011;36669;51.428;21.162;2023-02-19T01:41:13;4.20;;;2.60;;
44885;SDS011;36669;51.428;21.162;2023-02-19T01:46:37;10.15;;;5.20;;
44885;SDS011;36669;51.428;21.162;2023-02-19T01:49:14;6.35;;;3.53;;
44885;SDS011;36669;51.428;21.162;2023-02-19T01:51:45;6.22;;;3.55;;
44885;SDS011;36669;51.428;21.162;2023-02-19T01:54:18;11.82;;;4.32;;
44885;SDS011;36669;51.428;21.162;2023-02-19T01:56:49;7.70;;;4.03;;
44885;SDS011;36669;51.428;21.162;2023-02-19T01:59:18;11.63;;;5.03;;
44885;SDS011;36669;51.428;21.162;2023-02-19T02:01:44;10.50;;;3.35;;
44885;SDS011;36669;51.428;21.162;2023-02-19T02:04:11;7.22;;;3.30;;
44885;SDS011;36669;51.428;21.162;2023-02-19T02:06:41;7.57;;;3.58;;
44885;SDS011;36669;51.428;21.162;2023-02-19T02:09:15;11.00;;;3.65;;
44885;SDS011;36669;51.428;21.162;2023-02-19T02:12:04;9.52;;;4.53;;
44885;SDS011;36669;51.428;21.162;2023-02-19T02:14:33;3.08;;;1.92;;
44885;SDS011;36669;51.428;21.162;2023-02-19T02:17:30;3.92;;;2.40;;
44885;SDS011;36669;51.428;21.162;2023-02-19T02:25:59;10.02;;;2.78;;
44885;SDS011;36669;51.428;21.162;2023-02-19T02:32:15;5.50;;;2.33;;
44885;SDS011;36669;51.428;21.162;2023-02-19T02:34:51;9.52;;;1.42;;
44885;SDS011;36669;51.428;21.162;2023-02-19T02:37:23;1.13;;;0.85;;
44885;SDS011;36669;51.428;21.162;2023-02-19T02:39:57;9.45;;;2.60;;
44885;SDS011;36669;51.428;21.162;2023-02-19T02:42:25;8.85;;;3.00;;
44885;SDS011;36669;51.428;21.162;2023-02-19T02:44:51;1.95;;;1.05;;
44885;SDS011;36669;51.428;21.162;2023-02-19T02:47:41;5.13;;;2.10;;
44885;SDS011;36669;51.428;21.162;2023-02-19T02:50:17;3.75;;;2.13;;
44885;SDS011;36669;51.428;21.162;2023-02-19T02:52:48;4.93;;;1.02;;
44885;SDS011;36669;51.428;21.162;2023-02-19T02:55:39;4.22;;;1.02;;
44885;SDS011;36669;51.428;21.162;2023-02-19T02:58:08;4.35;;;1.83;;
44885;SDS011;36669;51.428;21.162;2023-02-19T03:00:37;3.60;;;0.90;;
44885;SDS011;36669;51.428;21.162;2023-02-19T03:03:25;8.00;;;2.45;;
44885;SDS011;36669;51.428;21.162;2023-02-19T03:06:01;2.88;;;1.95;;
44885;SDS011;36669;51.428;21.162;2023-02-19T03:08:33;2.90;;;1.80;;
44885;SDS011;36669;51.428;21.162;2023-02-19T03:11:08;3.95;;;2.08;;
44885;SDS011;36669;51.428;21.162;2023-02-19T03:14:17;1.73;;;1.00;;
44885;SDS011;36669;51.428;21.162;2023-02-19T03:17:07;1.08;;;0.52;;
44885;SDS011;36669;51.428;21.162;2023-02-19T03:20:02;9.13;;;1.67;;
44885;SDS011;36669;51.428;21.162;2023-02-19T03:22:39;4.90;;;2.33;;
44885;SDS011;36669;51.428;21.162;2023-02-19T03:28:07;11.57;;;3.15;;
44885;SDS011;36669;51.428;21.162;2023-02-19T03:30:38;5.82;;;1.95;;
44885;SDS011;36669;51.428;21.162;2023-02-19T03:33:11;1.92;;;1.23;;
44885;SDS011;36669;51.428;21.162;2023-02-19T03:35:51;3.03;;;1.67;;
44885;SDS011;36669;51.428;21.162;2023-02-19T03:38:25;8.95;;;1.65;;
44885;SDS011;36669;51.428;21.162;2023-02-19T03:49:44;2.45;;;0.93;;
44885;SDS011;36669;51.428;21.162;2023-02-19T03:55:36;7.57;;;2.42;;
44885;SDS011;36669;51.428;21.162;2023-02-19T03:58:39;6.28;;;1.52;;
44885;SDS011;36669;51.428;21.162;2023-02-19T04:01:43;9.52;;;2.65;;
44885;SDS011;36669;51.428;21.162;2023-02-19T04:04:20;1.30;;;0.85;;
44885;SDS011;36669;51.428;21.162;2023-02-19T04:07:13;3.35;;;2.03;;
44885;SDS011;36669;51.428;21.162;2023-02-19T04:09:42;1.55;;;1.08;;
44885;SDS011;36669;51.428;21.162;2023-02-19T04:12:18;1.27;;;0.90;;
44885;SDS011;36669;51.428;21.162;2023-02-19T04:14:58;3.53;;;2.35;;
44885;SDS011;36669;51.428;21.162;2023-02-19T04:17:31;11.93;;;3.38;;
44885;SDS011;36669;51.428;21.162;2023-02-19T04:20:00;3.08;;;1.58;;
44885;SDS011;36669;51.428;21.162;2023-02-19T04:22:30;6.70;;;2.75;;
44885;SDS011;36669;51.428;21.162;2023-02-19T04:24:57;3.45;;;2.08;;
44885;SDS011;36669;51.428;21.162;2023-02-19T04:27:25;6.45;;;2.63;;
44885;SDS011;36669;51.428;21.162;2023-02-19T04:29:52;12.63;;;2.83;;
44885;SDS011;36669;51.428;21.162;2023-02-19T04:32:18;6.13;;;1.75;;
44885;SDS011;36669;51.428;21.162;2023-02-19T04:34:45;4.53;;;2.13;;
44885;SDS011;36669;51.428;21.162;2023-02-19T04:37:11;5.65;;;3.00;;
44885;SDS011;36669;51.428;21.162;2023-02-19T04:39:39;2.83;;;1.23;;
44885;SDS011;36669;51.428;21.162;2023-02-19T04:42:06;5.75;;;2.25;;
44885;SDS011;36669;51.428;21.162;2023-02-19T04:44:34;3.72;;;1.92;;
44885;SDS011;36669;51.428;21.162;2023-02-19T04:47:00;2.72;;;1.30;;
44885;SDS011;36669;51.428;21.162;2023-02-19T04:49:28;5.85;;;2.75;;
44885;SDS011;36669;51.428;21.162;2023-02-19T04:51:55;4.70;;;2.38;;
44885;SDS011;36669;51.428;21.162;2023-02-19T04:54:20;9.05;;;3.25;;
44885;SDS011;36669;51.428;21.162;2023-02-19T04:56:47;8.88;;;2.45;;
44885;SDS011;36669;51.428;21.162;2023-02-19T04:59:16;8.20;;;3.33;;
44885;SDS011;36669;51.428;21.162;2023-02-19T05:01:44;9.98;;;3.30;;
44885;SDS011;36669;51.428;21.162;2023-02-19T05:04:10;6.57;;;2.88;;
44885;SDS011;36669;51.428;21.162;2023-02-19T05:06:37;1.50;;;1.38;;
44885;SDS011;36669;51.428;21.162;2023-02-19T05:09:05;10.55;;;2.38;;
44885;SDS011;36669;51.428;21.162;2023-02-19T05:11:32;4.72;;;2.28;;
44885;SDS011;36669;51.428;21.162;2023-02-19T05:14:00;3.38;;;2.80;;
44885;SDS011;36669;51.428;21.162;2023-02-19T05:16:29;6.18;;;3.63;;
44885;SDS011;36669;51.428;21.162;2023-02-19T05:18:56;4.15;;;2.17;;
44885;SDS011;36669;51.428;21.162;2023-02-19T05:21:23;3.67;;;2.42;;
44885;SDS011;36669;51.428;21.162;2023-02-19T05:23:50;2.95;;;1.83;;
44885;SDS011;36669;51.428;21.162;2023-02-19T05:26:20;8.88;;;2.60;;
44885;SDS011;36669;51.428;21.162;2023-02-19T05:28:55;3.17;;;2.08;;
44885;SDS011;36669;51.428;21.162;2023-02-19T05:31:23;8.93;;;4.20;;
44885;SDS011;36669;51.428;21.162;2023-02-19T05:33:51;4.45;;;2.88;;
44885;SDS011;36669;51.428;21.162;2023-02-19T05:36:20;3.22;;;1.92;;
44885;SDS011;36669;51.428;21.162;2023-02-19T05:38:46;7.72;;;3.58;;
44885;SDS011;36669;51.428;21.162;2023-02-19T05:41:21;6.57;;;3.25;;
44885;SDS011;36669;51.428;21.162;2023-02-19T05:43:55;10.48;;;3.85;;
44885;SDS011;36669;51.428;21.162;2023-02-19T05:46:25;9.73;;;4.85;;
44885;SDS011;36669;51.428;21.162;2023-02-19T05:48:55;10.23;;;4.25;;
44885;SDS011;36669;51.428;21.162;2023-02-19T05:51:23;6.45;;;3.63;;
44885;SDS011;36669;51.428;21.162;2023-02-19T05:53:50;2.72;;;1.88;;
44885;SDS011;36669;51.428;21.162;2023-02-19T05:56:22;8.25;;;2.53;;
44885;SDS011;36669;51.428;21.162;2023-02-19T05:58:49;5.95;;;2.13;;
44885;SDS011;36669;51.428;21.162;2023-02-19T06:01:19;3.10;;;2.00;;
44885;SDS011;36669;51.428;21.162;2023-02-19T06:04:00;1.33;;;1.20;;
44885;SDS011;36669;51.428;21.162;2023-02-19T06:06:27;4.45;;;2.25;;
44885;SDS011;36669;51.428;21.162;2023-02-19T06:08:54;3.40;;;2.50;;
44885;SDS011;36669;51.428;21.162;2023-02-19T06:11:21;7.72;;;3.60;;
44885;SDS011;36669;51.428;21.162;2023-02-19T06:13:47;4.28;;;1.85;;
44885;SDS011;36669;51.428;21.162;2023-02-19T06:16:16;1.73;;;1.50;;
44885;SDS011;36669;51.428;21.162;2023-02-19T06:18:43;14.35;;;3.38;;
44885;SDS011;36669;51.428;21.162;2023-02-19T06:21:10;6.13;;;2.38;;
44885;SDS011;36669;51.428;21.162;2023-02-19T06:23:39;4.85;;;2.75;;
44885;SDS011;36669;51.428;21.162;2023-02-19T06:26:12;2.60;;;1.75;;
44885;SDS011;36669;51.428;21.162;2023-02-19T06:28:41;1.48;;;1.23;;
44885;SDS011;36669;51.428;21.162;2023-02-19T06:31:09;6.70;;;2.88;;
44885;SDS011;36669;51.428;21.162;2023-02-19T06:33:35;6.63;;;4.13;;
44885;SDS011;36669;51.428;21.162;2023-02-19T06:36:04;8.38;;;4.68;;
44885;SDS011;36669;51.428;21.162;2023-02-19T06:38:34;8.52;;;5.07;;
44885;SDS011;36669;51.428;21.162;2023-02-19T06:41:06;6.00;;;3.70;;
44885;SDS011;36669;51.428;21.162;2023-02-19T06:43:33;12.02;;;4.93;;
44885;SDS011;36669;51.428;21.162;2023-02-19T06:46:03;2.58;;;2.28;;
44885;SDS011;36669;51.428;21.162;2023-02-19T06:48:41;6.60;;;3.90;;
44885;SDS011;36669;51.428;21.162;2023-02-19T06:51:11;13.20;;;6.13;;
44885;SDS011;36669;51.428;21.162;2023-02-19T06:53:57;12.75;;;7.30;;
44885;SDS011;36669;51.428;21.162;2023-02-19T06:56:30;5.10;;;2.75;;
44885;SDS011;36669;51.428;21.162;2023-02-19T06:59:02;10.10;;;4.15;;
44885;SDS011;36669;51.428;21.162;2023-02-19T07:01:41;10.10;;;5.20;;
44885;SDS011;36669;51.428;21.162;2023-02-19T07:04:10;4.95;;;3.60;;
44885;SDS011;36669;51.428;21.162;2023-02-19T07:06:37;7.75;;;3.72;;
44885;SDS011;36669;51.428;21.162;2023-02-19T07:09:04;10.48;;;6.22;;
44885;SDS011;36669;51.428;21.162;2023-02-19T07:11:33;5.43;;;3.53;;
44885;SDS011;36669;51.428;21.162;2023-02-19T07:14:05;7.93;;;3.50;;
44885;SDS011;36669;51.428;21.162;2023-02-19T07:16:48;15.05;;;6.03;;
44885;SDS011;36669;51.428;21.162;2023-02-19T07:19:16;5.78;;;3.65;;
44885;SDS011;36669;51.428;21.162;2023-02-19T07:21:43;9.70;;;5.28;;
44885;SDS011;36669;51.428;21.162;2023-02-19T07:24:11;9.13;;;3.63;;
44885;SDS011;36669;51.428;21.162;2023-02-19T07:26:41;7.05;;;3.42;;
44885;SDS011;36669;51.428;21.162;2023-02-19T07:29:08;15.05;;;4.30;;
44885;SDS011;36669;51.428;21.162;2023-02-19T07:31:35;4.53;;;2.70;;
44885;SDS011;36669;51.428;21.162;2023-02-19T07:34:01;4.38;;;3.13;;
44885;SDS011;36669;51.428;21.162;2023-02-19T07:36:28;11.73;;;7.43;;
44885;SDS011;36669;51.428;21.162;2023-02-19T07:38:56;7.38;;;4.70;;
44885;SDS011;36669;51.428;21.162;2023-02-19T07:41:23;7.55;;;4.47;;
44885;SDS011;36669;51.428;21.162;2023-02-19T07:43:51;8.93;;;4.55;;
44885;SDS011;36669;51.428;21.162;2023-02-19T07:46:19;14.77;;;5.70;;
44885;SDS011;36669;51.428;21.162;2023-02-19T07:48:46;7.18;;;4.60;;
44885;SDS011;36669;51.428;21.162;2023-02-19T07:51:14;10.07;;;4.80;;
44885;SDS011;36669;51.428;21.162;2023-02-19T07:53:47;12.55;;;7.90;;
44885;SDS011;36669;51.428;21.162;2023-02-19T07:56:15;11.75;;;5.97;;
44885;SDS011;36669;51.428;21.162;2023-02-19T07:58:44;14.63;;;5.43;;
44885;SDS011;36669;51.428;21.162;2023-02-19T08:01:19;10.07;;;5.22;;
44885;SDS011;36669;51.428;21.162;2023-02-19T08:04:05;13.85;;;6.40;;
44885;SDS011;36669;51.428;21.162;2023-02-19T08:06:44;5.80;;;3.08;;
44885;SDS011;36669;51.428;21.162;2023-02-19T08:09:12;6.65;;;3.55;;
44885;SDS011;36669;51.428;21.162;2023-02-19T08:11:40;10.85;;;4.28;;
44885;SDS011;36669;51.428;21.162;2023-02-19T08:14:26;8.82;;;4.78;;
44885;SDS011;36669;51.428;21.162;2023-02-19T08:16:54;12.70;;;6.68;;
44885;SDS011;36669;51.428;21.162;2023-02-19T08:19:24;13.85;;;5.13;;
44885;SDS011;36669;51.428;21.162;2023-02-19T08:21:52;9.75;;;4.20;;
44885;SDS011;36669;51.428;21.162;2023-02-19T08:24:19;5.15;;;2.53;;
44885;SDS011;36669;51.428;21.162;2023-02-19T08:26:46;6.53;;;3.42;;
44885;SDS011;36669;51.428;21.162;2023-02-19T08:29:13;9.93;;;4.00;;
44885;SDS011;36669;51.428;21.162;2023-02-19T08:31:39;4.88;;;2.60;;
44885;SDS011;36669;51.428;21.162;2023-02-19T08:34:06;8.27;;;4.68;;
44885;SDS011;36669;51.428;21.162;2023-02-19T08:36:32;14.48;;;6.63;;
44885;SDS011;36669;51.428;21.162;2023-02-19T08:38:58;7.28;;;4.13;;
44885;SDS011;36669;51.428;21.162;2023-02-19T08:41:25;13.60;;;5.82;;
44885;SDS011;36669;51.428;21.162;2023-02-19T08:43:54;11.63;;;5.50;;
44885;SDS011;36669;51.428;21.162;2023-02-19T08:46:21;8.73;;;4.15;;
44885;SDS011;36669;51.428;21.162;2023-02-19T08:48:47;4.95;;;3.03;;
44885;SDS011;36669;51.428;21.162;2023-02-19T08:51:16;11.25;;;3.90;;
44885;SDS011;36669;51.428;21.162;2023-02-19T08:53:44;4.82;;;2.55;;
44885;SDS011;36669;51.428;21.162;2023-02-19T08:56:12;4.22;;;1.88;;
44885;SDS011;36669;51.428;21.162;2023-02-19T08:58:41;7.25;;;2.80;;
44885;SDS011;36669;51.428;21.162;2023-02-19T09:01:09;8.13;;;2.85;;
44885;SDS011;36669;51.428;21.162;2023-02-19T09:03:41;7.18;;;2.28;;
44885;SDS011;36669;51.428;21.162;2023-02-19T09:06:15;7.43;;;2.20;;
44885;SDS011;36669;51.428;21.162;2023-02-19T09:08:44;4.00;;;1.85;;
44885;SDS011;36669;51.428;21.162;2023-02-19T09:11:13;8.88;;;3.10;;
44885;SDS011;36669;51.428;21.162;2023-02-19T09:13:41;3.97;;;2.05;;
44885;SDS011;36669;51.428;21.162;2023-02-19T09:16:10;8.65;;;3.15;;
44885;SDS011;36669;51.428;21.162;2023-02-19T09:18:37;3.17;;;1.77;;
44885;SDS011;36669;51.428;21.162;2023-02-19T09:21:05;3.85;;;1.55;;
44885;SDS011;36669;51.428;21.162;2023-02-19T09:23:34;7.93;;;2.80;;
44885;SDS011;36669;51.428;21.162;2023-02-19T09:26:00;6.88;;;2.15;;
44885;SDS011;36669;51.428;21.162;2023-02-19T09:28:34;6.90;;;2.00;;
44885;SDS011;36669;51.428;21.162;2023-02-19T09:31:05;3.33;;;1.73;;
44885;SDS011;36669;51.428;21.162;2023-02-19T09:33:44;3.55;;;2.15;;
44885;SDS011;36669;51.428;21.162;2023-02-19T09:38:39;4.82;;;2.28;;
44885;SDS011;36669;51.428;21.162;2023-02-19T09:41:14;5.97;;;2.22;;
44885;SDS011;36669;51.428;21.162;2023-02-19T09:43:52;7.13;;;2.58;;
44885;SDS011;36669;51.428;21.162;2023-02-19T09:49:05;8.90;;;2.88;;
44885;SDS011;36669;51.428;21.162;2023-02-19T09:51:40;4.30;;;1.52;;
44885;SDS011;36669;51.428;21.162;2023-02-19T09:54:14;10.15;;;2.20;;
44885;SDS011;36669;51.428;21.162;2023-02-19T09:56:56;6.25;;;2.70;;
44885;SDS011;36669;51.428;21.162;2023-02-19T09:59:45;4.50;;;2.28;;
44885;SDS011;36669;51.428;21.162;2023-02-19T10:02:18;4.10;;;1.95;;
44885;SDS011;36669;51.428;21.162;2023-02-19T10:04:50;7.57;;;2.63;;
44885;SDS011;36669;51.428;21.162;2023-02-19T10:07:27;8.50;;;2.22;;
44885;SDS011;36669;51.428;21.162;2023-02-19T10:13:19;8.57;;;3.35;;
44885;SDS011;36669;51.428;21.162;2023-02-19T10:15:51;2.47;;;1.25;;
44885;SDS011;36669;51.428;21.162;2023-02-19T10:18:40;7.57;;;2.95;;
44885;SDS011;36669;51.428;21.162;2023-02-19T10:21:27;2.15;;;1.63;;
44885;SDS011;36669;51.428;21.162;2023-02-19T10:23:58;8.43;;;2.30;;
44885;SDS011;36669;51.428;21.162;2023-02-19T10:26:27;5.25;;;2.20;;
44885;SDS011;36669;51.428;21.162;2023-02-19T10:28:58;4.13;;;2.25;;
44885;SDS011;36669;51.428;21.162;2023-02-19T10:31:27;6.63;;;1.48;;
44885;SDS011;36669;51.428;21.162;2023-02-19T10:33:58;3.35;;;1.73;;
44885;SDS011;36669;51.428;21.162;2023-02-19T10:36:42;8.73;;;3.05;;
44885;SDS011;36669;51.428;21.162;2023-02-19T10:39:29;5.10;;;2.13;;
44885;SDS011;36669;51.428;21.162;2023-02-19T10:42:17;5.65;;;2.33;;
44885;SDS011;36669;51.428;21.162;2023-02-19T10:44:53;3.25;;;1.65;;
44885;SDS011;36669;51.428;21.162;2023-02-19T10:47:28;9.40;;;2.85;;
44885;SDS011;36669;51.428;21.162;2023-02-19T10:49:58;10.48;;;3.03;;
44885;SDS011;36669;51.428;21.162;2023-02-19T10:52:27;4.50;;;2.50;;
44885;SDS011;36669;51.428;21.162;2023-02-19T10:58:19;7.53;;;2.85;;
44885;SDS011;36669;51.428;21.162;2023-02-19T11:01:08;6.90;;;2.72;;
44885;SDS011;36669;51.428;21.162;2023-02-19T11:03:50;10.93;;;2.40;;
44885;SDS011;36669;51.428;21.162;2023-02-19T11:06:20;3.85;;;1.95;;
44885;SDS011;36669;51.428;21.162;2023-02-19T11:08:56;4.55;;;2.47;;
44885;SDS011;36669;51.428;21.162;2023-02-19T11:11:33;4.93;;;2.30;;
44885;SDS011;36669;51.428;21.162;2023-02-19T11:14:20;14.30;;;2.70;;
44885;SDS011;36669;51.428;21.162;2023-02-19T11:16:55;7.03;;;2.67;;
44885;SDS011;36669;51.428;21.162;2023-02-19T11:19:38;6.45;;;1.58;;
44885;SDS011;36669;51.428;21.162;2023-02-19T11:22:19;7.35;;;2.55;;
44885;SDS011;36669;51.428;21.162;2023-02-19T11:24:49;9.07;;;2.60;;
44885;SDS011;36669;51.428;21.162;2023-02-19T11:27:18;9.70;;;2.92;;
44885;SDS011;36669;51.428;21.162;2023-02-19T11:29:48;10.25;;;3.50;;
44885;SDS011;36669;51.428;21.162;2023-02-19T11:32:26;7.97;;;2.65;;
44885;SDS011;36669;51.428;21.162;2023-02-19T11:37:55;4.82;;;1.92;;
44885;SDS011;36669;51.428;21.162;2023-02-19T11:55:22;10.10;;;2.15;;
44885;SDS011;36669;51.428;21.162;2023-02-19T12:10:40;5.38;;;2.30;;
44885;SDS011;36669;51.428;21.162;2023-02-19T12:22:27;1.75;;;1.30;;
44885;SDS011;36669;51.428;21.162;2023-02-19T12:34:05;6.85;;;2.33;;
44885;SDS011;36669;51.428;21.162;2023-02-19T12:37:07;7.35;;;2.03;;
44885;SDS011;36669;51.428;21.162;2023-02-19T12:51:24;4.75;;;2.15;;
44885;SDS011;36669;51.428;21.162;2023-02-19T12:54:01;2.80;;;1.65;;
44885;SDS011;36669;51.428;21.162;2023-02-19T13:02:29;8.80;;;2.10;;
44885;SDS011;36669;51.428;21.162;2023-02-19T13:08:23;3.65;;;2.35;;
44885;SDS011;36669;51.428;21.162;2023-02-19T13:11:16;8.00;;;2.25;;
44885;SDS011;36669;51.428;21.162;2023-02-19T13:14:13;2.22;;;1.45;;
44885;SDS011;36669;51.428;21.162;2023-02-19T13:16:48;8.57;;;2.67;;
44885;SDS011;36669;51.428;21.162;2023-02-19T13:19:21;7.47;;;2.83;;
44885;SDS011;36669;51.428;21.162;2023-02-19T13:21:50;5.32;;;2.65;;
44885;SDS011;36669;51.428;21.162;2023-02-19T13:24:49;8.68;;;3.22;;
44885;SDS011;36669;51.428;21.162;2023-02-19T13:33:25;4.13;;;1.75;;
44885;SDS011;36669;51.428;21.162;2023-02-19T13:38:39;7.63;;;2.45;;
44885;SDS011;36669;51.428;21.162;2023-02-19T13:41:19;6.38;;;1.77;;
44885;SDS011;36669;51.428;21.162;2023-02-19T13:44:02;4.60;;;1.60;;
44885;SDS011;36669;51.428;21.162;2023-02-19T13:46:36;6.25;;;2.30;;
44885;SDS011;36669;51.428;21.162;2023-02-19T13:51:59;4.63;;;2.15;;
44885;SDS011;36669;51.428;21.162;2023-02-19T14:01:00;2.53;;;1.65;;
44885;SDS011;36669;51.428;21.162;2023-02-19T14:12:18;5.10;;;1.95;;
44885;SDS011;36669;51.428;21.162;2023-02-19T14:17:27;4.28;;;1.90;;
44885;SDS011;36669;51.428;21.162;2023-02-19T14:23:24;7.22;;;2.05;;
44885;SDS011;36669;51.428;21.162;2023-02-19T14:26:01;5.53;;;2.22;;
44885;SDS011;36669;51.428;21.162;2023-02-19T14:28:36;5.85;;;2.50;;
44885;SDS011;36669;51.428;21.162;2023-02-19T14:31:30;5.00;;;2.17;;
44885;SDS011;36669;51.428;21.162;2023-02-19T14:34:04;5.47;;;2.35;;
44885;SDS011;36669;51.428;21.162;2023-02-19T14:36:57;4.75;;;2.30;;
44885;SDS011;36669;51.428;21.162;2023-02-19T14:39:28;9.45;;;2.78;;
44885;SDS011;36669;51.428;21.162;2023-02-19T14:41:57;10.05;;;2.03;;
44885;SDS011;36669;51.428;21.162;2023-02-19T14:44:51;6.47;;;2.10;;
44885;SDS011;36669;51.428;21.162;2023-02-19T14:47:25;8.05;;;1.77;;
44885;SDS011;36669;51.428;21.162;2023-02-19T14:50:06;5.35;;;1.92;;
44885;SDS011;36669;51.428;21.162;2023-02-19T14:55:32;6.43;;;1.58;;
44885;SDS011;36669;51.428;21.162;2023-02-19T14:58:09;5.38;;;1.77;;
44885;SDS011;36669;51.428;21.162;2023-02-19T15:00:47;4.65;;;1.85;;
44885;SDS011;36669;51.428;21.162;2023-02-19T15:06:14;3.78;;;1.58;;
44885;SDS011;36669;51.428;21.162;2023-02-19T15:08:48;5.15;;;1.80;;
44885;SDS011;36669;51.428;21.162;2023-02-19T15:11:18;4.75;;;2.13;;
44885;SDS011;36669;51.428;21.162;2023-02-19T15:13:52;5.43;;;2.65;;
44885;SDS011;36669;51.428;21.162;2023-02-19T15:16:22;4.47;;;2.22;;
44885;SDS011;36669;51.428;21.162;2023-02-19T15:18:51;4.68;;;1.38;;
44885;SDS011;36669;51.428;21.162;2023-02-19T15:21:26;6.45;;;2.50;;
44885;SDS011;36669;51.428;21.162;2023-02-19T15:23:56;0.75;;;0.75;;
44885;SDS011;36669;51.428;21.162;2023-02-19T15:26:34;6.13;;;2.30;;
44885;SDS011;36669;51.428;21.162;2023-02-19T15:29:08;6.30;;;2.00;;
44885;SDS011;36669;51.428;21.162;2023-02-19T15:31:55;3.55;;;1.73;;
44885;SDS011;36669;51.428;21.162;2023-02-19T15:34:30;5.55;;;2.58;;
44885;SDS011;36669;51.428;21.162;2023-02-19T15:37:02;6.65;;;2.58;;
44885;SDS011;36669;51.428;21.162;2023-02-19T15:39:33;7.70;;;2.22;;
44885;SDS011;36669;51.428;21.162;2023-02-19T15:42:07;4.60;;;1.70;;
44885;SDS011;36669;51.428;21.162;2023-02-19T15:50:50;5.90;;;2.63;;
44885;SDS011;36669;51.428;21.162;2023-02-19T15:53:21;11.90;;;2.70;;
44885;SDS011;36669;51.428;21.162;2023-02-19T15:58:41;6.00;;;2.72;;
44885;SDS011;36669;51.428;21.162;2023-02-19T16:01:19;6.35;;;1.40;;
44885;SDS011;36669;51.428;21.162;2023-02-19T16:03:51;8.68;;;1.85;;
44885;SDS011;36669;51.428;21.162;2023-02-19T16:06:21;4.90;;;1.98;;
44885;SDS011;36669;51.428;21.162;2023-02-19T16:09:05;11.57;;;2.50;;
44885;SDS011;36669;51.428;21.162;2023-02-19T16:11:53;5.07;;;1.77;;
44885;SDS011;36669;51.428;21.162;2023-02-19T16:14:35;9.18;;;2.85;;
44885;SDS011;36669;51.428;21.162;2023-02-19T16:17:18;11.63;;;3.10;;
44885;SDS011;36669;51.428;21.162;2023-02-19T16:19:51;4.07;;;1.90;;
44885;SDS011;36669;51.428;21.162;2023-02-19T16:22:20;5.05;;;2.55;;
44885;SDS011;36669;51.428;21.162;2023-02-19T16:25:18;15.52;;;2.90;;
44885;SDS011;36669;51.428;21.162;2023-02-19T16:28:23;5.47;;;2.70;;
44885;SDS011;36669;51.428;21.162;2023-02-19T16:30:56;6.93;;;2.22;;
44885;SDS011;36669;51.428;21.162;2023-02-19T16:36:20;10.32;;;3.03;;
44885;SDS011;36669;51.428;21.162;2023-02-19T16:41:32;9.45;;;3.17;;
44885;SDS011;36669;51.428;21.162;2023-02-19T16:49:49;8.52;;;3.13;;
44885;SDS011;36669;51.428;21.162;2023-02-19T16:52:18;7.22;;;2.55;;
44885;SDS011;36669;51.428;21.162;2023-02-19T16:54:47;10.32;;;2.35;;
44885;SDS011;36669;51.428;21.162;2023-02-19T16:57:34;2.78;;;1.58;;
44885;SDS011;36669;51.428;21.162;2023-02-19T16:59:59;4.60;;;2.08;;
44885;SDS011;36669;51.428;21.162;2023-02-19T17:02:28;6.03;;;1.45;;
44885;SDS011;36669;51.428;21.162;2023-02-19T17:04:58;6.88;;;2.30;;
44885;SDS011;36669;51.428;21.162;2023-02-19T17:07:24;4.18;;;1.88;;
44885;SDS011;36669;51.428;21.162;2023-02-19T17:09:53;6.38;;;2.40;;
44885;SDS011;36669;51.428;21.162;2023-02-19T17:12:19;6.25;;;2.22;;
44885;SDS011;36669;51.428;21.162;2023-02-19T17:14:51;12.38;;;3.78;;
44885;SDS011;36669;51.428;21.162;2023-02-19T17:17:19;6.72;;;2.92;;
44885;SDS011;36669;51.428;21.162;2023-02-19T17:19:45;11.30;;;3.58;;
44885;SDS011;36669;51.428;21.162;2023-02-19T17:22:13;6.88;;;2.55;;
44885;SDS011;36669;51.428;21.162;2023-02-19T17:25:00;3.67;;;2.00;;
44885;SDS011;36669;51.428;21.162;2023-02-19T17:27:27;7.57;;;2.28;;
44885;SDS011;36669;51.428;21.162;2023-02-19T17:29:53;6.53;;;2.25;;
44885;SDS011;36669;51.428;21.162;2023-02-19T17:32:19;5.63;;;2.08;;
44885;SDS011;36669;51.428;21.162;2023-02-19T17:34:47;11.65;;;2.85;;
44885;SDS011;36669;51.428;21.162;2023-02-19T17:37:15;9.77;;;3.83;;
44885;SDS011;36669;51.428;21.162;2023-02-19T17:39:43;5.28;;;3.10;;
44885;SDS011;36669;51.428;21.162;2023-02-19T17:42:10;6.63;;;2.75;;
44885;SDS011;36669;51.428;21.162;2023-02-19T17:44:37;4.63;;;2.45;;
44885;SDS011;36669;51.428;21.162;2023-02-19T17:47:05;9.35;;;2.88;;
44885;SDS011;36669;51.428;21.162;2023-02-19T17:49:31;12.20;;;3.65;;
44885;SDS011;36669;51.428;21.162;2023-02-19T17:51:58;4.60;;;1.90;;
44885;SDS011;36669;51.428;21.162;2023-02-19T17:54:27;6.25;;;2.47;;